createdAt,value
2022-11-26T00:00:30.480Z,1017.73
2022-11-26T00:01:30.467Z,1017.74
2022-11-26T00:02:30.655Z,1017.71
2022-11-26T00:03:30.503Z,1017.71
2022-11-26T00:04:30.450Z,1017.74
2022-11-26T00:05:30.422Z,1017.74
2022-11-26T00:06:30.412Z,1017.74
2022-11-26T00:07:30.502Z,1017.73
2022-11-26T00:08:30.389Z,1017.71
2022-11-26T00:09:30.376Z,1017.75
2022-11-26T00:10:30.372Z,1017.77
2022-11-26T00:11:30.355Z,1017.76
2022-11-26T00:12:30.344Z,1017.78
2022-11-26T00:13:30.333Z,1017.77
2022-11-26T00:14:30.320Z,1017.77
2022-11-26T00:15:30.312Z,1017.82
2022-11-26T00:16:30.433Z,1017.83
2022-11-26T00:17:30.287Z,1017.80
2022-11-26T00:18:30.285Z,1017.81
2022-11-26T00:19:30.266Z,1017.86
2022-11-26T00:20:30.255Z,1017.85
2022-11-26T00:21:30.256Z,1017.88
2022-11-26T00:22:30.266Z,1017.88
2022-11-26T00:23:30.251Z,1017.86
2022-11-26T00:24:30.210Z,1017.88
2022-11-26T00:25:30.198Z,1017.87
2022-11-26T00:26:30.187Z,1017.88
2022-11-26T00:27:30.175Z,1017.89
2022-11-26T00:28:30.185Z,1017.89
2022-11-26T00:29:30.156Z,1017.86
2022-11-26T00:30:30.147Z,1017.88
2022-11-26T00:31:30.177Z,1017.89
2022-11-26T00:32:30.119Z,1017.90
2022-11-26T00:33:30.112Z,1017.92
2022-11-26T00:34:30.103Z,1017.96
2022-11-26T00:35:30.087Z,1017.89
2022-11-26T00:36:30.073Z,1017.93
2022-11-26T00:37:30.063Z,1017.92
2022-11-26T00:38:30.053Z,1017.92
2022-11-26T00:39:30.070Z,1017.96
2022-11-26T00:40:30.045Z,1017.99
2022-11-26T00:41:30.020Z,1018.00
2022-11-26T00:42:30.008Z,1018.02
2022-11-26T00:43:29.996Z,1018.02
2022-11-26T00:44:29.985Z,1018.08
2022-11-26T00:45:30.078Z,1018.05
2022-11-26T00:46:29.974Z,1018.06
2022-11-26T00:47:29.957Z,1018.11
2022-11-26T00:48:29.941Z,1018.08
2022-11-26T00:49:29.928Z,1018.09
2022-11-26T00:50:29.921Z,1018.13
2022-11-26T00:51:29.906Z,1018.15
2022-11-26T00:52:29.903Z,1018.17
2022-11-26T00:53:29.886Z,1018.18
2022-11-26T00:54:29.875Z,1018.14
2022-11-26T00:55:29.881Z,1018.17
2022-11-26T00:56:33.803Z,1018.20
2022-11-26T00:57:30.871Z,1018.15
2022-11-26T00:58:29.829Z,1018.21
2022-11-26T00:59:29.821Z,1018.23
2022-11-26T01:00:29.817Z,1018.24
2022-11-26T01:01:29.810Z,1018.29
2022-11-26T01:02:29.842Z,1018.28
2022-11-26T01:03:29.779Z,1018.28
2022-11-26T01:04:29.761Z,1018.29
2022-11-26T01:05:29.750Z,1018.28
2022-11-26T01:06:29.740Z,1018.29
2022-11-26T01:07:29.789Z,1018.30
2022-11-26T01:08:29.730Z,1018.35
2022-11-26T01:09:29.712Z,1018.33
2022-11-26T01:10:29.695Z,1018.29
2022-11-26T01:11:29.713Z,1018.32
2022-11-26T01:12:29.671Z,1018.33
2022-11-26T01:13:29.660Z,1018.35
2022-11-26T01:14:29.653Z,1018.34
2022-11-26T01:15:29.655Z,1018.35
2022-11-26T01:16:29.655Z,1018.38
2022-11-26T01:17:29.616Z,1018.37
2022-11-26T01:18:29.605Z,1018.41
2022-11-26T01:19:29.594Z,1018.43
2022-11-26T01:20:29.582Z,1018.45
2022-11-26T01:21:29.594Z,1018.39
2022-11-26T01:22:29.560Z,1018.39
2022-11-26T01:23:29.549Z,1018.51
2022-11-26T01:24:29.539Z,1018.43
2022-11-26T01:25:29.526Z,1018.52
2022-11-26T01:26:29.516Z,1018.50
2022-11-26T01:27:29.537Z,1018.53
2022-11-26T01:28:29.493Z,1018.49
2022-11-26T01:29:29.483Z,1018.51
2022-11-26T01:30:29.481Z,1018.48
2022-11-26T01:31:29.551Z,1018.51
2022-11-26T01:32:29.768Z,1018.55
2022-11-26T01:33:29.483Z,1018.55
2022-11-26T01:34:29.426Z,1018.55
2022-11-26T01:35:29.414Z,1018.53
2022-11-26T01:36:29.403Z,1018.56
2022-11-26T01:37:29.391Z,1018.56
2022-11-26T01:38:29.380Z,1018.57
2022-11-26T01:39:29.376Z,1018.60
2022-11-26T01:40:29.360Z,1018.61
2022-11-26T01:41:29.347Z,1018.57
2022-11-26T01:42:29.337Z,1018.58
2022-11-26T01:43:29.350Z,1018.61
2022-11-26T01:44:29.314Z,1018.63
2022-11-26T01:45:29.379Z,1018.61
2022-11-26T01:46:29.294Z,1018.59
2022-11-26T01:47:29.285Z,1018.67
2022-11-26T01:48:29.270Z,1018.69
2022-11-26T01:49:29.258Z,1018.69
2022-11-26T01:50:29.249Z,1018.71
2022-11-26T01:51:29.253Z,1018.66
2022-11-26T01:52:29.224Z,1018.71
2022-11-26T01:53:29.212Z,1018.69
2022-11-26T01:54:29.201Z,1018.75
2022-11-26T01:55:29.191Z,1018.76
2022-11-26T01:56:29.180Z,1018.81
2022-11-26T01:57:29.189Z,1018.78
2022-11-26T01:58:29.157Z,1018.79
2022-11-26T01:59:29.166Z,1018.81
2022-11-26T02:00:29.135Z,1018.78
2022-11-26T02:01:29.207Z,1018.78
2022-11-26T02:02:29.133Z,1018.79
2022-11-26T02:03:29.113Z,1018.82
2022-11-26T02:04:29.092Z,1018.87
2022-11-26T02:05:29.079Z,1018.84
2022-11-26T02:06:29.069Z,1018.76
2022-11-26T02:07:29.113Z,1018.77
2022-11-26T02:08:29.046Z,1018.76
2022-11-26T02:09:29.063Z,1018.80
2022-11-26T02:10:29.022Z,1018.83
2022-11-26T02:11:29.013Z,1018.88
2022-11-26T02:12:29.000Z,1018.84
2022-11-26T02:13:28.989Z,1018.89
2022-11-26T02:14:28.978Z,1018.90
2022-11-26T02:15:28.992Z,1018.81
2022-11-26T02:16:29.002Z,1018.83
2022-11-26T02:17:28.945Z,1018.84
2022-11-26T02:18:28.932Z,1018.88
2022-11-26T02:19:28.921Z,1018.92
2022-11-26T02:20:28.910Z,1018.86
2022-11-26T02:21:28.905Z,1018.91
2022-11-26T02:22:28.887Z,1018.83
2022-11-26T02:23:28.878Z,1018.84
2022-11-26T02:24:28.865Z,1018.93
2022-11-26T02:25:28.860Z,1018.95
2022-11-26T02:26:28.843Z,1018.93
2022-11-26T02:27:28.837Z,1018.98
2022-11-26T02:28:28.821Z,1018.98
2022-11-26T02:29:28.812Z,1018.98
2022-11-26T02:30:28.798Z,1019.03
2022-11-26T02:31:28.865Z,1019.00
2022-11-26T02:32:28.775Z,1019.04
2022-11-26T02:33:28.785Z,1019.04
2022-11-26T02:34:30.646Z,1019.06
2022-11-26T02:35:29.743Z,1019.06
2022-11-26T02:36:28.733Z,1019.08
2022-11-26T02:37:28.719Z,1019.13
2022-11-26T02:38:28.708Z,1019.14
2022-11-26T02:39:28.718Z,1019.17
2022-11-26T02:40:28.686Z,1019.13
2022-11-26T02:41:28.675Z,1019.21
2022-11-26T02:42:28.664Z,1019.21
2022-11-26T02:43:28.653Z,1019.19
2022-11-26T02:44:28.641Z,1019.17
2022-11-26T02:45:28.737Z,1019.19
2022-11-26T02:46:28.619Z,1019.21
2022-11-26T02:47:28.630Z,1019.22
2022-11-26T02:48:28.597Z,1019.21
2022-11-26T02:49:28.586Z,1019.22
2022-11-26T02:50:28.578Z,1019.23
2022-11-26T02:51:34.568Z,1019.24
2022-11-26T02:52:29.583Z,1019.17
2022-11-26T02:53:28.540Z,1019.22
2022-11-26T02:54:28.528Z,1019.25
2022-11-26T02:55:28.518Z,1019.22
2022-11-26T02:56:28.508Z,1019.21
2022-11-26T02:57:28.511Z,1019.18
2022-11-26T02:58:28.485Z,1019.21
2022-11-26T02:59:28.475Z,1019.24
2022-11-26T03:00:28.462Z,1019.24
2022-11-26T03:01:28.480Z,1019.21
2022-11-26T03:02:28.439Z,1019.23
2022-11-26T03:03:28.553Z,1019.21
2022-11-26T03:04:28.437Z,1019.22
2022-11-26T03:05:28.406Z,1019.22
2022-11-26T03:06:28.399Z,1019.23
2022-11-26T03:07:28.437Z,1019.24
2022-11-26T03:08:28.373Z,1019.27
2022-11-26T03:09:28.366Z,1019.27
2022-11-26T03:10:28.350Z,1019.29
2022-11-26T03:11:28.414Z,1019.29
2022-11-26T03:12:28.334Z,1019.29
2022-11-26T03:13:28.317Z,1019.28
2022-11-26T03:14:28.304Z,1019.27
2022-11-26T03:15:28.301Z,1019.29
2022-11-26T03:16:28.363Z,1019.25
2022-11-26T03:17:28.271Z,1019.28
2022-11-26T03:18:28.259Z,1019.23
2022-11-26T03:19:28.266Z,1019.26
2022-11-26T03:20:28.238Z,1019.27
2022-11-26T03:21:28.258Z,1019.24
2022-11-26T03:22:28.224Z,1019.30
2022-11-26T03:23:28.203Z,1019.27
2022-11-26T03:24:28.193Z,1019.29
2022-11-26T03:25:28.181Z,1019.30
2022-11-26T03:26:28.171Z,1019.30
2022-11-26T03:27:28.166Z,1019.35
2022-11-26T03:28:28.148Z,1019.34
2022-11-26T03:29:28.136Z,1019.31
2022-11-26T03:30:28.126Z,1019.36
2022-11-26T03:31:28.152Z,1019.40
2022-11-26T03:32:28.103Z,1019.38
2022-11-26T03:33:28.107Z,1019.41
2022-11-26T03:34:28.081Z,1019.51
2022-11-26T03:35:28.088Z,1019.51
2022-11-26T03:36:28.059Z,1019.55
2022-11-26T03:37:28.047Z,1019.54
2022-11-26T03:38:28.037Z,1019.54
2022-11-26T03:39:28.031Z,1019.56
2022-11-26T03:40:28.015Z,1019.60
2022-11-26T03:41:28.001Z,1019.61
2022-11-26T03:42:27.994Z,1019.62
2022-11-26T03:43:27.981Z,1019.60
2022-11-26T03:44:27.967Z,1019.59
2022-11-26T03:45:28.034Z,1019.61
2022-11-26T03:46:27.945Z,1019.58
2022-11-26T03:47:27.935Z,1019.59
2022-11-26T03:48:27.923Z,1019.59
2022-11-26T03:49:27.913Z,1019.61
2022-11-26T03:50:27.902Z,1019.61
2022-11-26T03:51:27.914Z,1019.67
2022-11-26T03:52:27.879Z,1019.64
2022-11-26T03:53:27.867Z,1019.66
2022-11-26T03:54:27.860Z,1019.62
2022-11-26T03:55:27.845Z,1019.69
2022-11-26T03:56:27.834Z,1019.65
2022-11-26T03:57:27.851Z,1019.68
2022-11-26T03:58:27.811Z,1019.69
2022-11-26T03:59:27.800Z,1019.61
2022-11-26T04:00:27.790Z,1019.68
2022-11-26T04:01:27.900Z,1019.66
2022-11-26T04:02:27.767Z,1019.66
2022-11-26T04:03:27.799Z,1019.66
2022-11-26T04:04:27.752Z,1019.65
2022-11-26T04:05:27.733Z,1019.71
2022-11-26T04:06:27.722Z,1019.69
2022-11-26T04:07:27.817Z,1019.70
2022-11-26T04:08:27.699Z,1019.72
2022-11-26T04:09:27.708Z,1019.73
2022-11-26T04:10:27.676Z,1019.74
2022-11-26T04:11:27.666Z,1019.77
2022-11-26T04:12:27.658Z,1019.78
2022-11-26T04:13:27.646Z,1019.82
2022-11-26T04:14:27.633Z,1019.88
2022-11-26T04:15:27.636Z,1019.87
2022-11-26T04:16:27.682Z,1019.85
2022-11-26T04:17:27.600Z,1019.86
2022-11-26T04:18:27.589Z,1019.87
2022-11-26T04:19:27.579Z,1019.92
2022-11-26T04:20:27.565Z,1019.90
2022-11-26T04:21:27.562Z,1019.93
2022-11-26T04:22:27.542Z,1019.97
2022-11-26T04:23:27.566Z,1019.92
2022-11-26T04:24:27.521Z,1019.97
2022-11-26T04:25:27.509Z,1019.99
2022-11-26T04:26:27.499Z,1019.97
2022-11-26T04:27:27.494Z,1020.00
2022-11-26T04:28:27.474Z,1020.00
2022-11-26T04:29:27.467Z,1020.00
2022-11-26T04:30:29.812Z,1019.99
2022-11-26T04:31:27.478Z,1020.02
2022-11-26T04:32:27.431Z,1020.05
2022-11-26T04:33:27.450Z,1020.06
2022-11-26T04:34:27.412Z,1020.04
2022-11-26T04:35:27.399Z,1020.01
2022-11-26T04:36:27.385Z,1020.05
2022-11-26T04:37:27.375Z,1020.10
2022-11-26T04:38:27.365Z,1020.09
2022-11-26T04:39:27.381Z,1020.12
2022-11-26T04:40:27.341Z,1020.12
2022-11-26T04:41:27.329Z,1020.16
2022-11-26T04:42:27.321Z,1020.13
2022-11-26T04:43:27.308Z,1020.17
2022-11-26T04:44:27.297Z,1020.18
2022-11-26T04:45:27.448Z,1020.20
2022-11-26T04:46:27.276Z,1020.23
2022-11-26T04:47:27.263Z,1020.19
2022-11-26T04:48:27.252Z,1020.28
2022-11-26T04:49:27.241Z,1020.27
2022-11-26T04:50:27.230Z,1020.29
2022-11-26T04:51:27.225Z,1020.30
2022-11-26T04:52:27.206Z,1020.32
2022-11-26T04:53:27.197Z,1020.35
2022-11-26T04:54:27.184Z,1020.32
2022-11-26T04:55:27.196Z,1020.31
2022-11-26T04:56:27.163Z,1020.34
2022-11-26T04:57:27.171Z,1020.35
2022-11-26T04:58:27.140Z,1020.34
2022-11-26T04:59:27.132Z,1020.35
2022-11-26T05:00:27.117Z,1020.36
2022-11-26T05:01:27.206Z,1020.39
2022-11-26T05:02:27.170Z,1020.42
2022-11-26T05:03:27.090Z,1020.39
2022-11-26T05:04:27.072Z,1020.47
2022-11-26T05:05:27.062Z,1020.50
2022-11-26T05:06:27.050Z,1020.49
2022-11-26T05:07:27.103Z,1020.52
2022-11-26T05:08:27.029Z,1020.54
2022-11-26T05:09:27.047Z,1020.50
2022-11-26T05:10:27.006Z,1020.55
2022-11-26T05:11:27.011Z,1020.54
2022-11-26T05:12:26.989Z,1020.57
2022-11-26T05:13:26.971Z,1020.60
2022-11-26T05:14:26.962Z,1020.57
2022-11-26T05:15:26.954Z,1020.59
2022-11-26T05:16:26.987Z,1020.63
2022-11-26T05:17:26.926Z,1020.67
2022-11-26T05:18:26.916Z,1020.70
2022-11-26T05:19:26.906Z,1020.70
2022-11-26T05:20:26.895Z,1020.71
2022-11-26T05:21:26.898Z,1020.73
2022-11-26T05:22:26.870Z,1020.74
2022-11-26T05:23:26.862Z,1020.78
2022-11-26T05:24:26.847Z,1020.76
2022-11-26T05:25:26.836Z,1020.77
2022-11-26T05:26:26.825Z,1020.76
2022-11-26T05:27:26.853Z,1020.76
2022-11-26T05:28:26.803Z,1020.78
2022-11-26T05:29:26.792Z,1020.80
2022-11-26T05:30:26.782Z,1020.80
2022-11-26T05:31:26.817Z,1020.82
2022-11-26T05:32:26.758Z,1020.85
2022-11-26T05:33:26.755Z,1020.88
2022-11-26T05:34:26.736Z,1020.91
2022-11-26T05:35:26.725Z,1020.91
2022-11-26T05:36:26.714Z,1020.93
2022-11-26T05:37:26.702Z,1020.89
2022-11-26T05:38:26.691Z,1020.95
2022-11-26T05:39:26.688Z,1020.93
2022-11-26T05:40:26.668Z,1020.95
2022-11-26T05:41:26.657Z,1020.87
2022-11-26T05:42:26.645Z,1020.86
2022-11-26T05:43:26.653Z,1020.96
2022-11-26T05:44:26.624Z,1020.93
2022-11-26T05:45:26.695Z,1020.94
2022-11-26T05:46:26.602Z,1020.95
2022-11-26T05:47:26.589Z,1020.99
2022-11-26T05:48:26.578Z,1020.96
2022-11-26T05:49:26.567Z,1020.98
2022-11-26T05:50:26.557Z,1021.01
2022-11-26T05:51:26.567Z,1021.02
2022-11-26T05:52:26.536Z,1021.04
2022-11-26T05:53:26.522Z,1021.00
2022-11-26T05:54:26.510Z,1021.02
2022-11-26T05:55:26.500Z,1021.06
2022-11-26T05:56:26.489Z,1021.09
2022-11-26T05:57:26.493Z,1021.03
2022-11-26T05:58:26.465Z,1021.02
2022-11-26T05:59:26.473Z,1021.04
2022-11-26T06:00:26.444Z,1021.03
2022-11-26T06:01:26.432Z,1021.09
2022-11-26T06:02:26.509Z,1021.11
2022-11-26T06:03:26.562Z,1021.10
2022-11-26T06:04:26.400Z,1021.14
2022-11-26T06:05:26.389Z,1021.19
2022-11-26T06:06:26.375Z,1021.17
2022-11-26T06:07:26.429Z,1021.17
2022-11-26T06:08:26.365Z,1021.27
2022-11-26T06:09:26.349Z,1021.22
2022-11-26T06:10:26.331Z,1021.24
2022-11-26T06:11:26.321Z,1021.28
2022-11-26T06:12:26.309Z,1021.29
2022-11-26T06:13:26.298Z,1021.32
2022-11-26T06:14:26.287Z,1021.29
2022-11-26T06:15:26.300Z,1021.33
2022-11-26T06:16:26.363Z,1021.35
2022-11-26T06:17:26.255Z,1021.32
2022-11-26T06:18:26.241Z,1021.37
2022-11-26T06:19:26.231Z,1021.37
2022-11-26T06:20:26.220Z,1021.41
2022-11-26T06:21:26.238Z,1021.38
2022-11-26T06:22:26.205Z,1021.42
2022-11-26T06:23:26.189Z,1021.43
2022-11-26T06:24:26.173Z,1021.46
2022-11-26T06:25:26.162Z,1021.46
2022-11-26T06:26:26.157Z,1021.47
2022-11-26T06:27:26.164Z,1021.46
2022-11-26T06:28:26.130Z,1021.50
2022-11-26T06:29:28.178Z,1021.51
2022-11-26T06:30:26.107Z,1021.57
2022-11-26T06:31:26.199Z,1021.60
2022-11-26T06:32:26.087Z,1021.58
2022-11-26T06:33:26.089Z,1021.63
2022-11-26T06:34:26.063Z,1021.64
2022-11-26T06:35:26.050Z,1021.64
2022-11-26T06:36:26.042Z,1021.66
2022-11-26T06:37:26.029Z,1021.67
2022-11-26T06:38:26.018Z,1021.73
2022-11-26T06:39:26.011Z,1021.80
2022-11-26T06:40:25.995Z,1021.72
2022-11-26T06:41:25.983Z,1021.75
2022-11-26T06:42:25.980Z,1021.75
2022-11-26T06:43:25.960Z,1021.80
2022-11-26T06:44:25.959Z,1021.80
2022-11-26T06:45:26.064Z,1021.79
2022-11-26T06:46:25.926Z,1021.83
2022-11-26T06:47:25.933Z,1021.82
2022-11-26T06:48:25.911Z,1021.83
2022-11-26T06:49:25.895Z,1021.81
2022-11-26T06:50:25.882Z,1021.83
2022-11-26T06:51:25.877Z,1021.82
2022-11-26T06:52:25.866Z,1021.85
2022-11-26T06:53:25.850Z,1021.84
2022-11-26T06:54:25.842Z,1021.90
2022-11-26T06:55:25.827Z,1021.90
2022-11-26T06:56:25.815Z,1021.90
2022-11-26T06:57:26.405Z,1021.92
2022-11-26T06:58:25.792Z,1022.00
2022-11-26T06:59:25.781Z,1022.00
2022-11-26T07:00:25.769Z,1022.02
2022-11-26T07:01:25.824Z,1022.06
2022-11-26T07:02:25.859Z,1022.02
2022-11-26T07:03:30.524Z,1022.02
2022-11-26T07:04:26.723Z,1022.09
2022-11-26T07:05:25.714Z,1022.06
2022-11-26T07:06:25.709Z,1022.08
2022-11-26T07:07:25.796Z,1022.07
2022-11-26T07:08:25.681Z,1022.11
2022-11-26T07:09:25.684Z,1022.12
2022-11-26T07:10:25.658Z,1022.15
2022-11-26T07:11:25.656Z,1022.08
2022-11-26T07:12:25.642Z,1022.11
2022-11-26T07:13:25.630Z,1022.14
2022-11-26T07:14:25.618Z,1022.14
2022-11-26T07:15:25.610Z,1022.19
2022-11-26T07:16:25.676Z,1022.22
2022-11-26T07:17:25.579Z,1022.22
2022-11-26T07:18:25.568Z,1022.23
2022-11-26T07:19:25.574Z,1022.26
2022-11-26T07:20:25.546Z,1022.24
2022-11-26T07:21:25.539Z,1022.28
2022-11-26T07:22:25.525Z,1022.28
2022-11-26T07:23:25.513Z,1022.30
2022-11-26T07:24:25.500Z,1022.32
2022-11-26T07:25:25.490Z,1022.27
2022-11-26T07:26:25.478Z,1022.31
2022-11-26T07:27:25.473Z,1022.27
2022-11-26T07:28:25.456Z,1022.30
2022-11-26T07:29:25.444Z,1022.30
2022-11-26T07:30:25.432Z,1022.30
2022-11-26T07:31:25.457Z,1022.25
2022-11-26T07:32:25.412Z,1022.30
2022-11-26T07:33:25.421Z,1022.32
2022-11-26T07:34:25.389Z,1022.33
2022-11-26T07:35:25.397Z,1022.33
2022-11-26T07:36:25.370Z,1022.32
2022-11-26T07:37:25.354Z,1022.36
2022-11-26T07:38:25.344Z,1022.39
2022-11-26T07:39:25.363Z,1022.34
2022-11-26T07:40:25.321Z,1022.33
2022-11-26T07:41:25.312Z,1022.37
2022-11-26T07:42:25.300Z,1022.33
2022-11-26T07:43:25.287Z,1022.36
2022-11-26T07:44:25.278Z,1022.37
2022-11-26T07:45:25.282Z,1022.37
2022-11-26T07:46:25.416Z,1022.38
2022-11-26T07:47:25.245Z,1022.44
2022-11-26T07:48:25.237Z,1022.45
2022-11-26T07:49:25.220Z,1022.47
2022-11-26T07:50:25.213Z,1022.45
2022-11-26T07:51:25.235Z,1022.42
2022-11-26T07:52:25.186Z,1022.48
2022-11-26T07:53:25.175Z,1022.53
2022-11-26T07:54:25.165Z,1022.55
2022-11-26T07:55:25.153Z,1022.56
2022-11-26T07:56:25.141Z,1022.51
2022-11-26T07:57:25.137Z,1022.55
2022-11-26T07:58:25.120Z,1022.53
2022-11-26T07:59:25.108Z,1022.57
2022-11-26T08:00:25.104Z,1022.58
2022-11-26T08:01:25.155Z,1022.63
2022-11-26T08:02:25.137Z,1022.61
2022-11-26T08:03:25.087Z,1022.62
2022-11-26T08:04:25.053Z,1022.62
2022-11-26T08:05:25.039Z,1022.64
2022-11-26T08:06:25.036Z,1022.65
2022-11-26T08:07:29.200Z,1022.68
2022-11-26T08:08:25.008Z,1022.63
2022-11-26T08:09:25.027Z,1022.66
2022-11-26T08:10:24.988Z,1022.69
2022-11-26T08:11:24.973Z,1022.68
2022-11-26T08:12:24.961Z,1022.69
2022-11-26T08:13:24.969Z,1022.73
2022-11-26T08:14:24.941Z,1022.72
2022-11-26T08:15:24.937Z,1022.76
2022-11-26T08:16:27.709Z,1022.81
2022-11-26T08:17:24.906Z,1022.79
2022-11-26T08:18:24.895Z,1022.78
2022-11-26T08:19:24.883Z,1022.83
2022-11-26T08:20:28.827Z,1022.80
2022-11-26T08:21:24.870Z,1022.78
2022-11-26T08:22:24.849Z,1022.82
2022-11-26T08:23:24.865Z,1022.86
2022-11-26T08:24:24.828Z,1022.85
2022-11-26T08:25:24.817Z,1022.89
2022-11-26T08:26:30.967Z,1022.91
2022-11-26T08:27:25.799Z,1022.87
2022-11-26T08:28:24.783Z,1022.91
2022-11-26T08:29:24.772Z,1022.89
2022-11-26T08:30:24.760Z,1022.96
2022-11-26T08:31:25.005Z,1022.94
2022-11-26T08:32:24.739Z,1022.96
2022-11-26T08:33:24.735Z,1023.00
2022-11-26T08:34:24.721Z,1022.98
2022-11-26T08:35:34.407Z,1023.01
2022-11-26T08:36:25.693Z,1023.04
2022-11-26T08:37:24.681Z,1023.02
2022-11-26T08:38:24.671Z,1023.03
2022-11-26T08:39:24.684Z,1022.99
2022-11-26T08:40:24.688Z,1023.01
2022-11-26T08:41:24.637Z,1023.06
2022-11-26T08:42:24.627Z,1023.06
2022-11-26T08:43:39.632Z,1023.08
2022-11-26T08:44:25.636Z,1023.10
2022-11-26T08:45:24.592Z,1023.13
2022-11-26T08:46:24.710Z,1023.12
2022-11-26T08:47:24.571Z,1023.15
2022-11-26T08:48:27.947Z,1023.22
2022-11-26T08:49:25.547Z,1023.16
2022-11-26T08:50:24.606Z,1023.22
2022-11-26T08:51:24.528Z,1023.19
2022-11-26T08:52:24.514Z,1023.22
2022-11-26T08:53:24.503Z,1023.29
2022-11-26T08:54:24.493Z,1023.24
2022-11-26T08:55:27.144Z,1023.26
2022-11-26T08:56:24.479Z,1023.23
2022-11-26T08:57:24.458Z,1023.28
2022-11-26T08:58:24.448Z,1023.22
2022-11-26T08:59:24.446Z,1023.29
2022-11-26T09:00:24.530Z,1023.26
2022-11-26T09:01:24.606Z,1023.29
2022-11-26T09:02:24.463Z,1023.33
2022-11-26T09:03:24.424Z,1023.29
2022-11-26T09:04:24.380Z,1023.32
2022-11-26T09:05:24.367Z,1023.35
2022-11-26T09:06:24.357Z,1023.34
2022-11-26T09:07:24.563Z,1023.37
2022-11-26T09:08:24.357Z,1023.44
2022-11-26T09:09:24.323Z,1023.45
2022-11-26T09:10:24.318Z,1023.45
2022-11-26T09:11:24.320Z,1023.45
2022-11-26T09:12:24.290Z,1023.45
2022-11-26T09:13:24.281Z,1023.40
2022-11-26T09:14:24.277Z,1023.49
2022-11-26T09:15:24.295Z,1023.46
2022-11-26T09:16:24.308Z,1023.45
2022-11-26T09:17:24.234Z,1023.52
2022-11-26T09:18:24.226Z,1023.52
2022-11-26T09:19:24.211Z,1023.49
2022-11-26T09:20:24.335Z,1023.56
2022-11-26T09:21:24.190Z,1023.54
2022-11-26T09:22:24.282Z,1023.55
2022-11-26T09:23:24.167Z,1023.59
2022-11-26T09:24:24.156Z,1023.58
2022-11-26T09:25:24.146Z,1023.61
2022-11-26T09:26:24.149Z,1023.58
2022-11-26T09:27:24.142Z,1023.62
2022-11-26T09:28:24.113Z,1023.59
2022-11-26T09:29:24.099Z,1023.56
2022-11-26T09:30:24.099Z,1023.62
2022-11-26T09:31:24.108Z,1023.62
2022-11-26T09:32:27.205Z,1023.62
2022-11-26T09:33:25.055Z,1023.62
2022-11-26T09:34:24.044Z,1023.62
2022-11-26T09:35:24.032Z,1023.67
2022-11-26T09:36:24.020Z,1023.65
2022-11-26T09:37:24.072Z,1023.67
2022-11-26T09:38:24.006Z,1023.67
2022-11-26T09:39:23.988Z,1023.70
2022-11-26T09:40:23.980Z,1023.70
2022-11-26T09:41:23.966Z,1023.71
2022-11-26T09:42:23.956Z,1023.71
2022-11-26T09:43:23.962Z,1023.70
2022-11-26T09:44:23.945Z,1023.71
2022-11-26T09:45:24.001Z,1023.74
2022-11-26T09:46:23.909Z,1023.76
2022-11-26T09:47:23.901Z,1023.74
2022-11-26T09:48:23.889Z,1023.76
2022-11-26T09:49:23.878Z,1023.81
2022-11-26T09:50:23.870Z,1023.81
2022-11-26T09:51:23.853Z,1023.82
2022-11-26T09:52:23.915Z,1023.76
2022-11-26T09:53:23.830Z,1023.85
2022-11-26T09:54:23.820Z,1023.84
2022-11-26T09:55:23.808Z,1023.85
2022-11-26T09:56:23.806Z,1023.88
2022-11-26T09:57:23.831Z,1023.89
2022-11-26T09:58:27.196Z,1023.88
2022-11-26T09:59:23.782Z,1023.88
2022-11-26T10:00:23.762Z,1023.90
2022-11-26T10:01:23.768Z,1023.91
2022-11-26T10:02:23.809Z,1023.89
2022-11-26T10:03:23.744Z,1023.95
2022-11-26T10:04:23.709Z,1023.96
2022-11-26T10:05:23.697Z,1023.92
2022-11-26T10:06:23.686Z,1023.92
2022-11-26T10:07:23.845Z,1023.93
2022-11-26T10:08:23.671Z,1023.96
2022-11-26T10:09:23.651Z,1023.99
2022-11-26T10:10:23.642Z,1024.02
2022-11-26T10:11:23.629Z,1023.98
2022-11-26T10:12:25.819Z,1024.01
2022-11-26T10:13:23.606Z,1024.01
2022-11-26T10:14:23.601Z,1024.09
2022-11-26T10:15:23.601Z,1024.10
2022-11-26T10:16:23.623Z,1024.09
2022-11-26T10:17:23.608Z,1024.09
2022-11-26T10:18:23.550Z,1024.05
2022-11-26T10:19:23.538Z,1024.06
2022-11-26T10:20:23.533Z,1024.03
2022-11-26T10:21:37.736Z,1024.04
2022-11-26T10:22:24.504Z,1024.02
2022-11-26T10:23:23.495Z,1024.10
2022-11-26T10:24:23.485Z,1024.08
2022-11-26T10:25:23.472Z,1024.07
2022-11-26T10:26:23.476Z,1024.03
2022-11-26T10:27:23.449Z,1023.99
2022-11-26T10:28:23.441Z,1024.03
2022-11-26T10:29:23.431Z,1024.06
2022-11-26T10:30:23.416Z,1024.06
2022-11-26T10:31:23.469Z,1024.07
2022-11-26T10:32:23.399Z,1024.06
2022-11-26T10:33:23.383Z,1024.10
2022-11-26T10:34:23.371Z,1024.10
2022-11-26T10:35:23.360Z,1024.12
2022-11-26T10:36:23.355Z,1024.12
2022-11-26T10:37:23.341Z,1024.14
2022-11-26T10:38:23.335Z,1024.15
2022-11-26T10:39:23.314Z,1024.17
2022-11-26T10:40:23.306Z,1024.17
2022-11-26T10:41:23.296Z,1024.19
2022-11-26T10:42:23.283Z,1024.19
2022-11-26T10:43:23.273Z,1024.21
2022-11-26T10:44:23.291Z,1024.21
2022-11-26T10:45:23.248Z,1024.22
2022-11-26T10:46:23.299Z,1024.23
2022-11-26T10:47:23.242Z,1024.26
2022-11-26T10:48:23.213Z,1024.30
2022-11-26T10:49:23.203Z,1024.32
2022-11-26T10:50:49.708Z,1024.35
2022-11-26T10:51:26.597Z,1024.36
2022-11-26T10:52:23.169Z,1024.35
2022-11-26T10:53:23.159Z,1024.38
2022-11-26T10:54:23.150Z,1024.36
2022-11-26T10:55:23.135Z,1024.38
2022-11-26T10:56:23.141Z,1024.36
2022-11-26T10:57:23.117Z,1024.46
2022-11-26T10:58:23.101Z,1024.45
2022-11-26T10:59:23.101Z,1024.44
2022-11-26T11:00:23.080Z,1024.40
2022-11-26T11:01:23.111Z,1024.44
2022-11-26T11:02:23.160Z,1024.44
2022-11-26T11:03:44.621Z,1024.41
2022-11-26T11:04:24.034Z,1024.47
2022-11-26T11:05:23.023Z,1024.45
2022-11-26T11:06:23.013Z,1024.45
2022-11-26T11:07:23.041Z,1024.45
2022-11-26T11:08:23.011Z,1024.50
2022-11-26T11:09:22.981Z,1024.46
2022-11-26T11:10:22.986Z,1024.48
2022-11-26T11:11:22.957Z,1024.50
2022-11-26T11:12:22.949Z,1024.50
2022-11-26T11:13:22.934Z,1024.51
2022-11-26T11:14:22.955Z,1024.49
2022-11-26T11:15:22.916Z,1024.51
2022-11-26T11:16:22.940Z,1024.54
2022-11-26T11:17:22.889Z,1024.54
2022-11-26T11:18:22.887Z,1024.53
2022-11-26T11:19:22.885Z,1024.51
2022-11-26T11:20:22.874Z,1024.55
2022-11-26T11:21:22.847Z,1024.54
2022-11-26T11:22:22.835Z,1024.51
2022-11-26T11:23:34.772Z,1024.56
2022-11-26T11:24:23.809Z,1024.53
2022-11-26T11:25:22.805Z,1024.57
2022-11-26T11:26:22.803Z,1024.58
2022-11-26T11:27:22.778Z,1024.64
2022-11-26T11:28:22.766Z,1024.64
2022-11-26T11:29:22.756Z,1024.58
2022-11-26T11:30:22.744Z,1024.58
2022-11-26T11:31:22.801Z,1024.61
2022-11-26T11:32:22.738Z,1024.61
2022-11-26T11:33:22.712Z,1024.60
2022-11-26T11:34:22.700Z,1024.63
2022-11-26T11:35:22.705Z,1024.63
2022-11-26T11:36:22.678Z,1024.58
2022-11-26T11:37:22.668Z,1024.60
2022-11-26T11:38:22.670Z,1024.61
2022-11-26T11:39:22.643Z,1024.61
2022-11-26T11:40:22.638Z,1024.60
2022-11-26T11:41:22.622Z,1024.66
2022-11-26T11:42:22.609Z,1024.60
2022-11-26T11:43:22.600Z,1024.63
2022-11-26T11:44:22.592Z,1024.63
2022-11-26T11:45:22.587Z,1024.65
2022-11-26T11:46:22.610Z,1024.62
2022-11-26T11:47:22.557Z,1024.60
2022-11-26T11:48:22.549Z,1024.64
2022-11-26T11:49:22.535Z,1024.64
2022-11-26T11:50:22.530Z,1024.66
2022-11-26T11:51:22.527Z,1024.67
2022-11-26T11:52:22.499Z,1024.67
2022-11-26T11:53:22.488Z,1024.68
2022-11-26T11:54:22.476Z,1024.66
2022-11-26T11:55:22.466Z,1024.65
2022-11-26T11:56:22.461Z,1024.69
2022-11-26T11:57:22.444Z,1024.66
2022-11-26T11:58:22.430Z,1024.67
2022-11-26T11:59:22.420Z,1024.69
2022-11-26T12:00:22.407Z,1024.67
2022-11-26T12:01:22.396Z,1024.68
2022-11-26T12:02:22.482Z,1024.69
2022-11-26T12:03:22.376Z,1024.65
2022-11-26T12:04:22.428Z,1024.71
2022-11-26T12:05:22.351Z,1024.70